createdAt,value
2022-10-09T00:04:22.796Z,5.5
2022-10-09T00:09:20.903Z,5.6
2022-10-09T00:14:19.017Z,5.5
2022-10-09T00:19:17.091Z,5.5
2022-10-09T00:24:15.126Z,5.4
2022-10-09T00:29:13.194Z,5.3
2022-10-09T00:34:11.220Z,5.3
2022-10-09T00:39:09.354Z,5.4
2022-10-09T00:44:07.390Z,5.3
2022-10-09T00:49:05.398Z,5.3
2022-10-09T00:54:03.389Z,5.3
2022-10-09T00:59:01.720Z,5.2
2022-10-09T01:03:59.710Z,5
2022-10-09T01:08:57.531Z,4.9
2022-10-09T01:13:55.563Z,5
2022-10-09T01:18:53.701Z,4.9
2022-10-09T01:23:51.741Z,5.1
2022-10-09T01:28:50.041Z,5.1
2022-10-09T01:33:48.084Z,5.1
2022-10-09T01:38:46.401Z,5
2022-10-09T01:43:44.457Z,4.9
2022-10-09T01:48:42.367Z,4.9
2022-10-09T01:53:40.547Z,4.8
2022-10-09T01:58:38.572Z,4.8
2022-10-09T02:03:36.620Z,4.8
2022-10-09T02:08:34.818Z,4.8
2022-10-09T02:13:32.866Z,4.8
2022-10-09T02:18:31.036Z,4.8
2022-10-09T02:23:29.152Z,4.8
2022-10-09T02:28:27.303Z,4.7
2022-10-09T02:33:25.454Z,4.8
2022-10-09T02:38:23.682Z,4.8
2022-10-09T02:43:21.692Z,4.9
2022-10-09T02:48:19.875Z,4.8
2022-10-09T02:53:17.949Z,4.8
2022-10-09T02:58:15.981Z,4.7
2022-10-09T03:03:14.217Z,4.6
2022-10-09T03:08:12.220Z,4.5
2022-10-09T03:13:10.299Z,4.4
2022-10-09T03:18:08.430Z,4.3
2022-10-09T03:23:06.367Z,4.3
2022-10-09T03:28:04.544Z,4.2
2022-10-09T03:33:02.290Z,4.2
2022-10-09T03:38:00.425Z,4.2
2022-10-09T03:42:58.467Z,4.1
2022-10-09T03:47:56.532Z,4.2
2022-10-09T03:52:54.699Z,4.2
2022-10-09T03:57:52.770Z,4.2
2022-10-09T04:02:51.148Z,4.2
2022-10-09T04:07:48.713Z,4.2
2022-10-09T04:12:47.162Z,4.2
2022-10-09T04:17:45.136Z,4.1
2022-10-09T04:22:43.247Z,4.2
2022-10-09T04:27:41.387Z,4.2
2022-10-09T04:32:39.427Z,4.2
2022-10-09T04:37:37.557Z,4.3
2022-10-09T04:42:35.621Z,4.3
2022-10-09T04:47:34.561Z,4.1
2022-10-09T04:52:32.795Z,4.8
2022-10-09T04:57:31.018Z,5.2
2022-10-09T05:02:29.292Z,5.4
2022-10-09T05:07:27.658Z,5.6
2022-10-09T05:12:26.013Z,5.8
2022-10-09T05:17:24.554Z,6.3
2022-10-09T05:22:23.477Z,7.9
2022-10-09T05:27:23.718Z,10.3
2022-10-09T05:32:24.862Z,13.4
2022-10-09T05:37:25.075Z,15.5
2022-10-09T05:42:25.600Z,17.7
2022-10-09T05:47:25.460Z,19.8
2022-10-09T05:52:25.413Z,21.4
2022-10-09T05:57:24.299Z,22.4
2022-10-09T06:02:23.267Z,23.3
2022-10-09T06:07:21.467Z,23.9
2022-10-09T06:12:21.259Z,25.5
2022-10-09T06:17:20.985Z,27.3
2022-10-09T06:22:20.184Z,27.6
2022-10-09T06:27:15.865Z,25.7
2022-10-09T06:32:15.284Z,27.2
2022-10-09T06:37:15.393Z,28.8
2022-10-09T06:42:14.430Z,30.1
2022-10-09T06:47:11.940Z,29.3
2022-10-09T06:52:10.541Z,29.7
2022-10-09T06:57:09.559Z,30.7
2022-10-09T07:02:09.282Z,32.2
2022-10-09T07:07:08.109Z,32.8
2022-10-09T07:12:06.919Z,33.7
2022-10-09T07:17:05.663Z,34.4
2022-10-09T07:22:04.320Z,35
2022-10-09T07:27:02.833Z,35.7
2022-10-09T07:32:01.618Z,36.2
2022-10-09T07:37:00.328Z,36.9
2022-10-09T07:41:58.889Z,37.2
2022-10-09T07:46:55.311Z,34.7
2022-10-09T07:51:50.614Z,34.5
2022-10-09T07:56:52.355Z,37.6
2022-10-09T08:01:52.183Z,39.8
2022-10-09T08:06:51.293Z,41
2022-10-09T08:11:48.198Z,38.2
2022-10-09T08:16:43.644Z,35.3
2022-10-09T08:21:40.183Z,33.9
2022-10-09T08:26:36.907Z,32.4
2022-10-09T08:31:35.102Z,32.1
2022-10-09T08:36:31.890Z,30.5
2022-10-09T08:41:27.825Z,29.2
2022-10-09T08:46:31.539Z,36.3
2022-10-09T08:51:32.968Z,39.4
2022-10-09T08:56:32.895Z,40.9
2022-10-09T09:01:30.826Z,40.5
2022-10-09T09:06:23.932Z,33.7
2022-10-09T09:11:21.367Z,32.7
2022-10-09T09:16:21.529Z,38.3
2022-10-09T09:21:21.941Z,40.2
2022-10-09T09:26:20.671Z,41.3
2022-10-09T09:31:18.673Z,41
2022-10-09T09:36:17.043Z,40.9
2022-10-09T09:41:12.322Z,39.5
2022-10-09T09:46:12.473Z,42
2022-10-09T09:51:27.214Z,42.2
2022-10-09T09:56:08.290Z,39.7
2022-10-09T10:01:04.587Z,38.6
2022-10-09T10:06:04.567Z,41.3
2022-10-09T10:11:03.447Z,42
2022-10-09T10:16:01.823Z,42.2
2022-10-09T10:20:59.644Z,42
2022-10-09T10:25:57.689Z,42.2
2022-10-09T10:30:55.844Z,42.1
2022-10-09T10:35:54.065Z,42.3
2022-10-09T10:40:52.132Z,42.4
2022-10-09T10:45:50.290Z,42.5
2022-10-09T10:50:48.659Z,43.1
2022-10-09T10:55:46.614Z,43.1
2022-10-09T11:00:44.375Z,42.7
2022-10-09T11:05:42.544Z,43.1
2022-10-09T11:10:40.338Z,42.7
2022-10-09T11:15:38.485Z,42.5
2022-10-09T11:20:36.336Z,42.2
2022-10-09T11:25:34.033Z,42.1
2022-10-09T11:30:31.813Z,41.9
2022-10-09T11:35:29.581Z,42
2022-10-09T11:40:27.338Z,41.5
2022-10-09T11:45:25.115Z,41.3
2022-10-09T11:50:23.014Z,41
2022-10-09T11:55:21.190Z,41.3
2022-10-09T12:00:18.895Z,41.2
2022-10-09T12:05:16.642Z,40.8
2022-10-09T12:10:14.377Z,40.7
2022-10-09T12:15:12.111Z,39.9
2022-10-09T12:20:09.189Z,39
2022-10-09T12:25:06.062Z,37.8
2022-10-09T12:30:03.340Z,36.8
2022-10-09T12:35:00.230Z,35.3
2022-10-09T12:39:57.560Z,34.5
2022-10-09T12:44:55.332Z,33.9
2022-10-09T12:49:52.144Z,31.6
2022-10-09T12:54:48.473Z,29.4
2022-10-09T12:59:45.168Z,28.3
2022-10-09T13:04:42.694Z,27.5
2022-10-09T13:09:40.578Z,27
2022-10-09T13:14:38.517Z,26.5
2022-10-09T13:19:35.977Z,25.7
2022-10-09T13:24:33.596Z,25.7
2022-10-09T13:29:31.901Z,25.7
2022-10-09T13:34:29.444Z,25
2022-10-09T13:39:26.899Z,24
2022-10-09T13:44:24.322Z,23.3
2022-10-09T13:49:21.898Z,22.9
2022-10-09T13:54:19.626Z,22.6
2022-10-09T13:59:17.402Z,22.3
2022-10-09T14:04:15.097Z,22
2022-10-09T14:09:12.946Z,21.6
2022-10-09T14:14:10.759Z,21.2
2022-10-09T14:19:08.292Z,20.6
2022-10-09T14:24:06.141Z,20.3
2022-10-09T14:29:04.015Z,19.8
2022-10-09T14:34:02.175Z,19.5
2022-10-09T14:38:59.962Z,19
2022-10-09T14:43:57.947Z,18.7
2022-10-09T14:48:55.728Z,18.3
2022-10-09T14:53:53.618Z,17.8
2022-10-09T14:58:51.723Z,17.8
2022-10-09T15:03:49.726Z,17.6
2022-10-09T15:08:47.772Z,17.6
2022-10-09T15:13:45.912Z,17.5
2022-10-09T15:18:43.769Z,17.2
2022-10-09T15:23:41.679Z,16.9
2022-10-09T15:28:39.574Z,16.5
2022-10-09T15:33:37.463Z,16.2
2022-10-09T15:38:35.192Z,15.6
2022-10-09T15:43:33.857Z,15.3
2022-10-09T15:48:30.361Z,14.6
2022-10-09T15:53:28.253Z,14.2
2022-10-09T15:58:25.994Z,13.8
2022-10-09T16:03:23.650Z,13.6
2022-10-09T16:08:21.488Z,13.3
2022-10-09T16:13:19.224Z,13.1
2022-10-09T16:18:17.273Z,12.9
2022-10-09T16:23:15.415Z,12.8
2022-10-09T16:28:13.626Z,12.7
2022-10-09T16:33:12.748Z,12.6
2022-10-09T16:38:09.392Z,12.5
2022-10-09T16:43:07.386Z,12.6
2022-10-09T16:48:05.517Z,12.6
2022-10-09T16:53:03.602Z,12.6
2022-10-09T16:58:01.663Z,12.4
2022-10-09T17:02:59.879Z,12.3
2022-10-09T17:07:57.865Z,12.2
2022-10-09T17:12:55.921Z,12.1
2022-10-09T17:17:53.684Z,12
2022-10-09T17:22:51.968Z,11.9
2022-10-09T17:27:49.730Z,11.8
2022-10-09T17:32:48.083Z,11.8
2022-10-09T17:37:45.699Z,11.7
2022-10-09T17:42:43.863Z,11.6
2022-10-09T17:47:41.904Z,11.5
2022-10-09T17:52:39.985Z,11.4
2022-10-09T17:57:38.033Z,11.4
2022-10-09T18:02:36.175Z,11.3
2022-10-09T18:07:34.308Z,11.2
2022-10-09T18:12:32.148Z,11.1
2022-10-09T18:17:30.239Z,11.1
2022-10-09T18:22:28.292Z,11.1
2022-10-09T18:27:26.473Z,11.1
2022-10-09T18:32:24.604Z,11.1
2022-10-09T18:37:22.644Z,11
2022-10-09T18:42:20.650Z,10.9
2022-10-09T18:47:18.762Z,10.8
2022-10-09T18:52:17.051Z,10.7
2022-10-09T18:57:15.108Z,10.7
2022-10-09T19:02:13.215Z,10.7
2022-10-09T19:07:11.406Z,10.7
2022-10-09T19:12:09.653Z,10.6
2022-10-09T19:17:07.624Z,10.6
2022-10-09T19:22:05.968Z,10.6
2022-10-09T19:27:03.958Z,10.6
2022-10-09T19:32:02.097Z,10.6
2022-10-09T19:37:00.344Z,10.5
2022-10-09T19:41:58.420Z,10.4
2022-10-09T19:46:56.611Z,10.4
2022-10-09T19:51:54.710Z,10.2
2022-10-09T19:56:52.799Z,10.1
2022-10-09T20:01:53.975Z,10.1
2022-10-09T20:06:48.939Z,10
2022-10-09T20:11:47.128Z,10.1
2022-10-09T20:16:45.330Z,10
2022-10-09T20:21:43.460Z,10.1
2022-10-09T20:26:43.230Z,10
2022-10-09T20:31:39.786Z,9.9
2022-10-09T20:36:37.844Z,9.9
2022-10-09T20:41:36.073Z,10
2022-10-09T20:46:33.881Z,9.9
2022-10-09T20:51:32.063Z,9.8
2022-10-09T20:56:30.126Z,9.8
2022-10-09T21:01:28.455Z,9.8
2022-10-09T21:06:26.501Z,9.7
2022-10-09T21:11:24.857Z,9.6
2022-10-09T21:16:22.960Z,9.5
2022-10-09T21:21:21.226Z,9.5
2022-10-09T21:26:19.125Z,9.4
2022-10-09T21:31:17.180Z,9.5
2022-10-09T21:36:15.410Z,9.6
2022-10-09T21:41:13.647Z,9.6
2022-10-09T21:46:11.902Z,9.5
2022-10-09T21:51:10.043Z,9.4
2022-10-09T21:56:08.019Z,9.4
2022-10-09T22:01:06.152Z,9.5
2022-10-09T22:06:04.257Z,9.5
2022-10-09T22:11:02.442Z,9.5
2022-10-09T22:16:00.446Z,9.4
2022-10-09T22:20:58.564Z,9.2
2022-10-09T22:25:56.825Z,9.2
2022-10-09T22:30:55.146Z,9.1
2022-10-09T22:35:53.285Z,8.9
2022-10-09T22:40:51.457Z,8.9
2022-10-09T22:45:49.549Z,8.7
2022-10-09T22:50:47.690Z,8.6
2022-10-09T22:55:45.357Z,8.6
2022-10-09T23:00:43.469Z,8.5
2022-10-09T23:05:41.282Z,8.3
2022-10-09T23:10:39.492Z,8.3
2022-10-09T23:15:37.520Z,8.3
2022-10-09T23:20:35.551Z,8.3
2022-10-09T23:25:33.539Z,8.2
2022-10-09T23:30:31.698Z,8.1
2022-10-09T23:35:29.727Z,8.1
2022-10-09T23:40:27.806Z,8.1
2022-10-09T23:45:26.038Z,8.1
2022-10-09T23:50:24.451Z,8.1
2022-10-09T23:55:22.443Z,8.1
